sensor_id;sensor_type;location;lat;lon;timestamp;temperature;humidity
12557;DHT22;6344;49.932;8.308;2023-03-04T00:02:02;-0.90;99.90
12557;DHT22;6344;49.932;8.308;2023-03-04T00:04:29;-0.60;99.90
12557;DHT22;6344;49.932;8.308;2023-03-04T00:06:56;-0.50;99.90
12557;DHT22;6344;49.932;8.308;2023-03-04T00:09:24;-0.60;99.90
12557;DHT22;6344;49.932;8.308;2023-03-04T00:11:50;-0.70;99.90
12557;DHT22;6344;49.932;8.308;2023-03-04T00:14:17;-0.90;99.90
12557;DHT22;6344;49.932;8.308;2023-03-04T00:16:44;-1.00;99.90
12557;DHT22;6344;49.932;8.308;2023-03-04T00:19:11;-1.20;99.90
12557;DHT22;6344;49.932;8.308;2023-03-04T00:21:37;-1.30;99.90
12557;DHT22;6344;49.932;8.308;2023-03-04T00:24:04;-1.00;99.90
12557;DHT22;6344;49.932;8.308;2023-03-04T00:26:32;-0.80;99.90
12557;DHT22;6344;49.932;8.308;2023-03-04T00:28:59;-0.70;99.90
12557;DHT22;6344;49.932;8.308;2023-03-04T00:31:26;-0.70;99.90
12557;DHT22;6344;49.932;8.308;2023-03-04T00:33:52;-0.80;99.90
12557;DHT22;6344;49.932;8.308;2023-03-04T00:36:19;-0.80;99.90
12557;DHT22;6344;49.932;8.308;2023-03-04T00:38:46;-1.10;99.90
12557;DHT22;6344;49.932;8.308;2023-03-04T00:41:12;-1.40;99.90
12557;DHT22;6344;49.932;8.308;2023-03-04T00:43:40;-1.50;99.90
12557;DHT22;6344;49.932;8.308;2023-03-04T00:46:07;-1.80;99.90
12557;DHT22;6344;49.932;8.308;2023-03-04T00:48:34;-1.80;99.90
12557;DHT22;6344;49.932;8.308;2023-03-04T00:51:00;-1.60;99.90
12557;DHT22;6344;49.932;8.308;2023-03-04T00:53:27;-1.80;99.90
12557;DHT22;6344;49.932;8.308;2023-03-04T00:55:53;-2.00;99.90
12557;DHT22;6344;49.932;8.308;2023-03-04T00:58:20;-2.10;99.90
12557;DHT22;6344;49.932;8.308;2023-03-04T01:00:48;-2.30;99.90
12557;DHT22;6344;49.932;8.308;2023-03-04T01:03:15;-2.40;99.90
12557;DHT22;6344;49.932;8.308;2023-03-04T01:05:41;-2.20;99.90
12557;DHT22;6344;49.932;8.308;2023-03-04T01:08:08;-1.90;99.90
12557;DHT22;6344;49.932;8.308;2023-03-04T01:10:35;-1.90;99.90
12557;DHT22;6344;49.932;8.308;2023-03-04T01:13:02;-2.00;99.90
12557;DHT22;6344;49.932;8.308;2023-03-04T01:15:28;-2.10;99.90
12557;DHT22;6344;49.932;8.308;2023-03-04T01:17:56;-2.20;99.90
12557;DHT22;6344;49.932;8.308;2023-03-04T01:20:23;-2.30;99.90
12557;DHT22;6344;49.932;8.308;2023-03-04T01:22:50;-2.50;99.90
12557;DHT22;6344;49.932;8.308;2023-03-04T01:25:16;-2.50;99.90
12557;DHT22;6344;49.932;8.308;2023-03-04T01:27:43;-2.50;99.90
12557;DHT22;6344;49.932;8.308;2023-03-04T01:30:11;-2.40;99.90
12557;DHT22;6344;49.932;8.308;2023-03-04T01:32:38;-2.50;99.90
12557;DHT22;6344;49.932;8.308;2023-03-04T01:35:07;-2.60;99.90
12557;DHT22;6344;49.932;8.308;2023-03-04T01:37:33;-2.40;99.90
12557;DHT22;6344;49.932;8.308;2023-03-04T01:40:00;-2.40;99.90
12557;DHT22;6344;49.932;8.308;2023-03-04T01:42:30;-2.50;99.90
12557;DHT22;6344;49.932;8.308;2023-03-04T01:44:57;-2.70;99.90
12557;DHT22;6344;49.932;8.308;2023-03-04T01:47:27;-2.80;99.90
12557;DHT22;6344;49.932;8.308;2023-03-04T01:49:57;-2.60;99.90
12557;DHT22;6344;49.932;8.308;2023-03-04T01:52:26;-2.50;99.90
12557;DHT22;6344;49.932;8.308;2023-03-04T01:54:53;-2.50;99.90
12557;DHT22;6344;49.932;8.308;2023-03-04T01:57:22;-2.60;99.90
12557;DHT22;6344;49.932;8.308;2023-03-04T02:00:13;-2.80;99.90
12557;DHT22;6344;49.932;8.308;2023-03-04T02:02:40;-3.00;99.90
12557;DHT22;6344;49.932;8.308;2023-03-04T02:05:07;-3.00;99.90
12557;DHT22;6344;49.932;8.308;2023-03-04T02:07:35;-3.00;99.90
12557;DHT22;6344;49.932;8.308;2023-03-04T02:10:02;-2.90;99.90
12557;DHT22;6344;49.932;8.308;2023-03-04T02:12:29;-2.90;99.90
12557;DHT22;6344;49.932;8.308;2023-03-04T02:14:56;-3.00;99.90
12557;DHT22;6344;49.932;8.308;2023-03-04T02:17:23;-2.90;99.90
12557;DHT22;6344;49.932;8.308;2023-03-04T02:19:55;-3.00;99.90
12557;DHT22;6344;49.932;8.308;2023-03-04T02:22:25;-3.00;99.90
12557;DHT22;6344;49.932;8.308;2023-03-04T02:24:56;-3.00;99.90
12557;DHT22;6344;49.932;8.308;2023-03-04T02:27:27;-2.90;99.90
12557;DHT22;6344;49.932;8.308;2023-03-04T02:29:53;-3.00;99.90
12557;DHT22;6344;49.932;8.308;2023-03-04T02:32:20;-3.00;99.90
12557;DHT22;6344;49.932;8.308;2023-03-04T02:34:49;-3.00;99.90
12557;DHT22;6344;49.932;8.308;2023-03-04T02:37:16;-2.90;99.90
12557;DHT22;6344;49.932;8.308;2023-03-04T02:39:45;-2.90;99.90
12557;DHT22;6344;49.932;8.308;2023-03-04T02:42:12;-2.80;99.90
12557;DHT22;6344;49.932;8.308;2023-03-04T02:44:41;-2.70;99.90
12557;DHT22;6344;49.932;8.308;2023-03-04T02:47:11;-2.50;99.90
12557;DHT22;6344;49.932;8.308;2023-03-04T02:49:40;-2.40;99.90
12557;DHT22;6344;49.932;8.308;2023-03-04T02:52:08;-2.40;99.90
12557;DHT22;6344;49.932;8.308;2023-03-04T02:54:36;-2.40;99.90
12557;DHT22;6344;49.932;8.308;2023-03-04T02:57:05;-2.60;99.90
12557;DHT22;6344;49.932;8.308;2023-03-04T02:59:32;-2.80;99.90
12557;DHT22;6344;49.932;8.308;2023-03-04T03:02:01;-3.00;99.90
12557;DHT22;6344;49.932;8.308;2023-03-04T03:04:28;-3.10;99.90
12557;DHT22;6344;49.932;8.308;2023-03-04T03:06:55;-3.10;99.90
12557;DHT22;6344;49.932;8.308;2023-03-04T03:09:21;-3.00;99.90
12557;DHT22;6344;49.932;8.308;2023-03-04T03:11:48;-3.20;99.90
12557;DHT22;6344;49.932;8.308;2023-03-04T03:14:15;-3.40;99.90
12557;DHT22;6344;49.932;8.308;2023-03-04T03:16:42;-3.30;99.90
12557;DHT22;6344;49.932;8.308;2023-03-04T03:19:10;-3.40;99.90
12557;DHT22;6344;49.932;8.308;2023-03-04T03:21:36;-3.50;99.90
12557;DHT22;6344;49.932;8.308;2023-03-04T03:24:03;-3.30;99.90
12557;DHT22;6344;49.932;8.308;2023-03-04T03:26:30;-3.30;99.90
12557;DHT22;6344;49.932;8.308;2023-03-04T03:28:56;-3.30;99.90
12557;DHT22;6344;49.932;8.308;2023-03-04T03:31:23;-3.40;99.90
12557;DHT22;6344;49.932;8.308;2023-03-04T03:33:50;-3.40;99.90
12557;DHT22;6344;49.932;8.308;2023-03-04T03:36:18;-3.30;99.90
12557;DHT22;6344;49.932;8.308;2023-03-04T03:38:44;-3.30;99.90
12557;DHT22;6344;49.932;8.308;2023-03-04T03:41:11;-3.30;99.90
12557;DHT22;6344;49.932;8.308;2023-03-04T03:43:37;-3.30;99.90
12557;DHT22;6344;49.932;8.308;2023-03-04T03:46:04;-3.20;99.90
12557;DHT22;6344;49.932;8.308;2023-03-04T03:48:31;-3.10;99.90
12557;DHT22;6344;49.932;8.308;2023-03-04T03:50:57;-3.00;99.90
12557;DHT22;6344;49.932;8.308;2023-03-04T03:53:25;-2.70;99.90
12557;DHT22;6344;49.932;8.308;2023-03-04T03:55:52;-2.60;99.90
12557;DHT22;6344;49.932;8.308;2023-03-04T03:58:18;-2.40;99.90
12557;DHT22;6344;49.932;8.308;2023-03-04T04:00:45;-2.30;99.90
12557;DHT22;6344;49.932;8.308;2023-03-04T04:03:13;-2.30;99.90
12557;DHT22;6344;49.932;8.308;2023-03-04T04:05:40;-2.20;99.90
12557;DHT22;6344;49.932;8.308;2023-03-04T04:08:10;-2.10;99.90
12557;DHT22;6344;49.932;8.308;2023-03-04T04:10:38;-1.90;99.90
12557;DHT22;6344;49.932;8.308;2023-03-04T04:13:04;-1.90;99.90
12557;DHT22;6344;49.932;8.308;2023-03-04T04:15:31;-1.90;99.90
12557;DHT22;6344;49.932;8.308;2023-03-04T04:17:58;-1.80;99.90
12557;DHT22;6344;49.932;8.308;2023-03-04T04:20:24;-1.60;99.90
12557;DHT22;6344;49.932;8.308;2023-03-04T04:22:51;-1.60;99.90
12557;DHT22;6344;49.932;8.308;2023-03-04T04:25:17;-1.40;99.90
12557;DHT22;6344;49.932;8.308;2023-03-04T04:27:45;-1.20;99.90
12557;DHT22;6344;49.932;8.308;2023-03-04T04:30:12;-1.10;99.90
12557;DHT22;6344;49.932;8.308;2023-03-04T04:32:39;-1.10;99.90
12557;DHT22;6344;49.932;8.308;2023-03-04T04:35:07;-1.00;99.90
12557;DHT22;6344;49.932;8.308;2023-03-04T04:37:33;-0.90;99.90
12557;DHT22;6344;49.932;8.308;2023-03-04T04:40:00;-0.90;99.90
12557;DHT22;6344;49.932;8.308;2023-03-04T04:42:28;-0.70;99.90
12557;DHT22;6344;49.932;8.308;2023-03-04T04:44:56;-0.70;99.90
12557;DHT22;6344;49.932;8.308;2023-03-04T04:47:22;-0.60;99.90
12557;DHT22;6344;49.932;8.308;2023-03-04T04:49:49;-0.50;99.90
12557;DHT22;6344;49.932;8.308;2023-03-04T04:52:16;-0.40;99.90
12557;DHT22;6344;49.932;8.308;2023-03-04T04:54:43;-0.30;99.90
12557;DHT22;6344;49.932;8.308;2023-03-04T04:57:09;-0.10;99.90
12557;DHT22;6344;49.932;8.308;2023-03-04T04:59:36;-0.20;99.90
12557;DHT22;6344;49.932;8.308;2023-03-04T05:02:04;-0.10;99.90
12557;DHT22;6344;49.932;8.308;2023-03-04T05:04:30;0.00;99.90
12557;DHT22;6344;49.932;8.308;2023-03-04T05:06:58;0.10;99.90
12557;DHT22;6344;49.932;8.308;2023-03-04T05:09:24;0.10;99.90
12557;DHT22;6344;49.932;8.308;2023-03-04T05:11:51;0.20;99.90
12557;DHT22;6344;49.932;8.308;2023-03-04T05:14:18;0.30;99.90
12557;DHT22;6344;49.932;8.308;2023-03-04T05:16:44;0.30;99.90
12557;DHT22;6344;49.932;8.308;2023-03-04T05:19:12;0.40;99.90
12557;DHT22;6344;49.932;8.308;2023-03-04T05:21:39;0.50;99.90
12557;DHT22;6344;49.932;8.308;2023-03-04T05:24:06;0.60;99.90
12557;DHT22;6344;49.932;8.308;2023-03-04T05:26:32;0.80;99.90
12557;DHT22;6344;49.932;8.308;2023-03-04T05:28:59;0.80;99.90
12557;DHT22;6344;49.932;8.308;2023-03-04T05:31:26;1.00;99.90
12557;DHT22;6344;49.932;8.308;2023-03-04T05:33:52;1.10;99.90
12557;DHT22;6344;49.932;8.308;2023-03-04T05:36:20;1.30;99.90
12557;DHT22;6344;49.932;8.308;2023-03-04T05:38:47;1.50;99.90
12557;DHT22;6344;49.932;8.308;2023-03-04T05:41:14;1.70;99.90
12557;DHT22;6344;49.932;8.308;2023-03-04T05:43:43;1.80;99.90
12557;DHT22;6344;49.932;8.308;2023-03-04T05:46:12;1.80;99.90
12557;DHT22;6344;49.932;8.308;2023-03-04T05:48:40;1.70;99.90
12557;DHT22;6344;49.932;8.308;2023-03-04T05:51:06;1.70;99.90
12557;DHT22;6344;49.932;8.308;2023-03-04T05:53:35;1.70;99.90
12557;DHT22;6344;49.932;8.308;2023-03-04T05:56:06;1.70;99.90
12557;DHT22;6344;49.932;8.308;2023-03-04T05:58:33;1.70;99.90
12557;DHT22;6344;49.932;8.308;2023-03-04T06:00:59;1.70;99.90
12557;DHT22;6344;49.932;8.308;2023-03-04T06:03:26;1.80;99.90
12557;DHT22;6344;49.932;8.308;2023-03-04T06:05:53;1.80;99.90
12557;DHT22;6344;49.932;8.308;2023-03-04T06:08:19;1.90;99.90
12557;DHT22;6344;49.932;8.308;2023-03-04T06:10:51;1.80;99.90
12557;DHT22;6344;49.932;8.308;2023-03-04T06:13:18;1.70;99.90
12557;DHT22;6344;49.932;8.308;2023-03-04T06:15:45;1.60;99.90
12557;DHT22;6344;49.932;8.308;2023-03-04T06:18:12;1.70;99.90
12557;DHT22;6344;49.932;8.308;2023-03-04T06:20:39;1.70;99.90
12557;DHT22;6344;49.932;8.308;2023-03-04T06:23:05;1.80;99.90
12557;DHT22;6344;49.932;8.308;2023-03-04T06:25:32;1.90;99.90
12557;DHT22;6344;49.932;8.308;2023-03-04T06:28:00;2.00;99.90
12557;DHT22;6344;49.932;8.308;2023-03-04T06:30:27;2.00;99.90
12557;DHT22;6344;49.932;8.308;2023-03-04T06:32:54;2.20;99.90
12557;DHT22;6344;49.932;8.308;2023-03-04T06:35:21;2.40;99.90
12557;DHT22;6344;49.932;8.308;2023-03-04T06:37:48;2.50;99.90
12557;DHT22;6344;49.932;8.308;2023-03-04T06:40:14;2.40;99.90
12557;DHT22;6344;49.932;8.308;2023-03-04T06:42:41;2.40;99.90
12557;DHT22;6344;49.932;8.308;2023-03-04T06:45:10;2.50;99.90
12557;DHT22;6344;49.932;8.308;2023-03-04T06:47:37;2.50;99.90
12557;DHT22;6344;49.932;8.308;2023-03-04T06:50:05;2.70;99.90
12557;DHT22;6344;49.932;8.308;2023-03-04T06:52:31;2.90;99.90
12557;DHT22;6344;49.932;8.308;2023-03-04T06:54:58;3.00;99.90
12557;DHT22;6344;49.932;8.308;2023-03-04T06:57:25;3.00;99.90
12557;DHT22;6344;49.932;8.308;2023-03-04T06:59:51;2.70;99.90
12557;DHT22;6344;49.932;8.308;2023-03-04T07:02:19;2.90;99.90
12557;DHT22;6344;49.932;8.308;2023-03-04T07:04:46;2.90;99.90
12557;DHT22;6344;49.932;8.308;2023-03-04T07:07:12;2.70;99.90
12557;DHT22;6344;49.932;8.308;2023-03-04T07:09:39;2.60;99.90
12557;DHT22;6344;49.932;8.308;2023-03-04T07:12:06;2.70;99.90
12557;DHT22;6344;49.932;8.308;2023-03-04T07:14:33;2.70;99.90
12557;DHT22;6344;49.932;8.308;2023-03-04T07:16:59;2.70;99.90
12557;DHT22;6344;49.932;8.308;2023-03-04T07:19:28;2.70;99.90
12557;DHT22;6344;49.932;8.308;2023-03-04T07:21:54;2.80;99.90
12557;DHT22;6344;49.932;8.308;2023-03-04T07:24:21;2.90;99.90
12557;DHT22;6344;49.932;8.308;2023-03-04T07:26:48;3.00;99.90
12557;DHT22;6344;49.932;8.308;2023-03-04T07:29:14;3.00;99.90
12557;DHT22;6344;49.932;8.308;2023-03-04T07:31:41;3.10;99.90
12557;DHT22;6344;49.932;8.308;2023-03-04T07:34:11;3.30;99.90
12557;DHT22;6344;49.932;8.308;2023-03-04T07:36:40;3.40;99.90
12557;DHT22;6344;49.932;8.308;2023-03-04T07:39:07;3.30;99.90
12557;DHT22;6344;49.932;8.308;2023-03-04T07:41:35;3.60;99.90
12557;DHT22;6344;49.932;8.308;2023-03-04T07:44:03;3.70;99.90
12557;DHT22;6344;49.932;8.308;2023-03-04T07:46:30;3.60;99.90
12557;DHT22;6344;49.932;8.308;2023-03-04T07:48:57;3.60;99.90
12557;DHT22;6344;49.932;8.308;2023-03-04T07:51:26;3.60;99.90
12557;DHT22;6344;49.932;8.308;2023-03-04T07:53:56;3.80;99.90
12557;DHT22;6344;49.932;8.308;2023-03-04T07:56:25;3.70;99.90
12557;DHT22;6344;49.932;8.308;2023-03-04T07:58:53;3.90;99.90
12557;DHT22;6344;49.932;8.308;2023-03-04T08:01:22;4.20;23.10
12557;DHT22;6344;49.932;8.308;2023-03-04T08:03:50;4.20;43.30
12557;DHT22;6344;49.932;8.308;2023-03-04T08:06:18;4.10;38.10
12557;DHT22;6344;49.932;8.308;2023-03-04T08:08:45;4.10;78.70
12557;DHT22;6344;49.932;8.308;2023-03-04T08:11:16;4.10;59.50
12557;DHT22;6344;49.932;8.308;2023-03-04T08:13:43;4.20;53.30
12557;DHT22;6344;49.932;8.308;2023-03-04T08:16:11;4.30;83.00
12557;DHT22;6344;49.932;8.308;2023-03-04T08:18:40;4.30;75.70
12557;DHT22;6344;49.932;8.308;2023-03-04T08:21:08;4.50;82.50
12557;DHT22;6344;49.932;8.308;2023-03-04T08:23:35;4.80;28.70
12557;DHT22;6344;49.932;8.308;2023-03-04T08:26:05;4.70;17.50
12557;DHT22;6344;49.932;8.308;2023-03-04T08:28:33;4.70;18.70
12557;DHT22;6344;49.932;8.308;2023-03-04T08:31:00;4.60;1.90
12557;DHT22;6344;49.932;8.308;2023-03-04T08:33:26;4.60;21.60
12557;DHT22;6344;49.932;8.308;2023-03-04T08:35:53;4.60;15.20
12557;DHT22;6344;49.932;8.308;2023-03-04T08:38:20;4.90;1.00
12557;DHT22;6344;49.932;8.308;2023-03-04T08:40:51;4.70;8.30
12557;DHT22;6344;49.932;8.308;2023-03-04T08:43:18;4.70;1.00
12557;DHT22;6344;49.932;8.308;2023-03-04T08:45:46;4.60;1.00
12557;DHT22;6344;49.932;8.308;2023-03-04T08:48:13;4.90;8.90
12557;DHT22;6344;49.932;8.308;2023-03-04T08:50:40;5.10;1.00
12557;DHT22;6344;49.932;8.308;2023-03-04T08:53:07;5.30;1.00
12557;DHT22;6344;49.932;8.308;2023-03-04T08:55:33;5.40;1.00
12557;DHT22;6344;49.932;8.308;2023-03-04T08:58:00;5.20;1.00
12557;DHT22;6344;49.932;8.308;2023-03-04T09:00:26;5.30;1.00
12557;DHT22;6344;49.932;8.308;2023-03-04T09:02:54;5.20;1.00
12557;DHT22;6344;49.932;8.308;2023-03-04T09:05:21;5.20;1.00
12557;DHT22;6344;49.932;8.308;2023-03-04T09:07:48;5.00;1.00
12557;DHT22;6344;49.932;8.308;2023-03-04T09:10:15;5.00;1.00
12557;DHT22;6344;49.932;8.308;2023-03-04T09:12:41;4.80;1.00
12557;DHT22;6344;49.932;8.308;2023-03-04T09:15:08;4.80;1.00
12557;DHT22;6344;49.932;8.308;2023-03-04T09:17:35;4.70;1.00
12557;DHT22;6344;49.932;8.308;2023-03-04T09:20:04;4.70;1.00
12557;DHT22;6344;49.932;8.308;2023-03-04T09:22:33;4.80;1.00
12557;DHT22;6344;49.932;8.308;2023-03-04T09:24:59;4.90;1.00
12557;DHT22;6344;49.932;8.308;2023-03-04T09:27:26;5.00;1.00
12557;DHT22;6344;49.932;8.308;2023-03-04T09:29:52;5.00;1.00
12557;DHT22;6344;49.932;8.308;2023-03-04T09:32:19;5.00;1.00
12557;DHT22;6344;49.932;8.308;2023-03-04T09:34:46;5.00;1.00
12557;DHT22;6344;49.932;8.308;2023-03-04T09:37:14;5.20;1.00
12557;DHT22;6344;49.932;8.308;2023-03-04T09:39:40;5.10;1.00
12557;DHT22;6344;49.932;8.308;2023-03-04T09:42:10;4.90;1.00
12557;DHT22;6344;49.932;8.308;2023-03-04T09:44:42;5.10;1.00
12557;DHT22;6344;49.932;8.308;2023-03-04T09:47:13;5.30;1.00
12557;DHT22;6344;49.932;8.308;2023-03-04T09:49:43;5.20;1.00
12557;DHT22;6344;49.932;8.308;2023-03-04T09:52:20;5.40;1.00
12557;DHT22;6344;49.932;8.308;2023-03-04T09:55:00;5.60;1.00
12557;DHT22;6344;49.932;8.308;2023-03-04T09:57:39;5.70;1.00
12557;DHT22;6344;49.932;8.308;2023-03-04T10:00:13;5.70;1.00
12557;DHT22;6344;49.932;8.308;2023-03-04T10:03:04;6.00;1.00
12557;DHT22;6344;49.932;8.308;2023-03-04T10:05:33;5.80;1.00
12557;DHT22;6344;49.932;8.308;2023-03-04T10:08:13;5.90;1.00
12557;DHT22;6344;49.932;8.308;2023-03-04T10:10:42;5.80;1.00
12557;DHT22;6344;49.932;8.308;2023-03-04T10:13:13;5.70;1.00
12557;DHT22;6344;49.932;8.308;2023-03-04T10:15:42;6.10;1.00
12557;DHT22;6344;49.932;8.308;2023-03-04T10:18:15;6.00;1.00
12557;DHT22;6344;49.932;8.308;2023-03-04T10:20:53;5.90;1.00
12557;DHT22;6344;49.932;8.308;2023-03-04T10:23:24;5.60;1.00
12557;DHT22;6344;49.932;8.308;2023-03-04T10:25:51;5.70;1.00
12557;DHT22;6344;49.932;8.308;2023-03-04T10:28:22;5.70;1.00
12557;DHT22;6344;49.932;8.308;2023-03-04T10:30:55;5.80;1.00
12557;DHT22;6344;49.932;8.308;2023-03-04T10:33:25;5.90;1.00
12557;DHT22;6344;49.932;8.308;2023-03-04T10:36:05;6.00;1.00
12557;DHT22;6344;49.932;8.308;2023-03-04T10:38:41;6.00;1.00
12557;DHT22;6344;49.932;8.308;2023-03-04T10:41:11;5.90;1.00
12557;DHT22;6344;49.932;8.308;2023-03-04T10:43:39;6.00;1.00
12557;DHT22;6344;49.932;8.308;2023-03-04T10:46:09;5.80;1.00
12557;DHT22;6344;49.932;8.308;2023-03-04T10:48:39;5.90;1.00
12557;DHT22;6344;49.932;8.308;2023-03-04T10:51:18;5.80;1.00
12557;DHT22;6344;49.932;8.308;2023-03-04T10:53:47;5.80;1.00
12557;DHT22;6344;49.932;8.308;2023-03-04T10:56:33;5.90;1.00
12557;DHT22;6344;49.932;8.308;2023-03-04T10:59:23;6.10;1.00
12557;DHT22;6344;49.932;8.308;2023-03-04T11:01:54;6.10;1.00
12557;DHT22;6344;49.932;8.308;2023-03-04T11:04:22;6.10;1.00
12557;DHT22;6344;49.932;8.308;2023-03-04T11:06:50;6.20;1.00
12557;DHT22;6344;49.932;8.308;2023-03-04T11:09:22;6.10;1.00
12557;DHT22;6344;49.932;8.308;2023-03-04T11:11:50;6.20;1.00
12557;DHT22;6344;49.932;8.308;2023-03-04T11:14:20;6.00;1.00
12557;DHT22;6344;49.932;8.308;2023-03-04T11:16:52;6.00;1.00
12557;DHT22;6344;49.932;8.308;2023-03-04T11:19:22;6.00;1.00
12557;DHT22;6344;49.932;8.308;2023-03-04T11:21:51;6.00;1.00
12557;DHT22;6344;49.932;8.308;2023-03-04T11:24:22;6.00;1.00
12557;DHT22;6344;49.932;8.308;2023-03-04T11:26:54;6.10;1.00
12557;DHT22;6344;49.932;8.308;2023-03-04T11:29:24;6.00;1.00
12557;DHT22;6344;49.932;8.308;2023-03-04T11:31:55;5.90;1.00
12557;DHT22;6344;49.932;8.308;2023-03-04T11:34:32;6.00;1.00
12557;DHT22;6344;49.932;8.308;2023-03-04T11:37:05;5.90;1.00
12557;DHT22;6344;49.932;8.308;2023-03-04T11:39:37;5.80;1.00
12557;DHT22;6344;49.932;8.308;2023-03-04T11:42:12;6.00;1.00
12557;DHT22;6344;49.932;8.308;2023-03-04T11:44:42;5.90;1.00
12557;DHT22;6344;49.932;8.308;2023-03-04T11:47:25;6.10;1.00
12557;DHT22;6344;49.932;8.308;2023-03-04T11:53:00;6.00;1.00
12557;DHT22;6344;49.932;8.308;2023-03-04T11:55:40;6.10;1.00
12557;DHT22;6344;49.932;8.308;2023-03-04T11:58:23;6.10;1.00
12557;DHT22;6344;49.932;8.308;2023-03-04T12:01:06;6.00;1.00
12557;DHT22;6344;49.932;8.308;2023-03-04T12:03:59;6.30;1.00
12557;DHT22;6344;49.932;8.308;2023-03-04T12:06:37;6.30;1.00
12557;DHT22;6344;49.932;8.308;2023-03-04T12:09:13;6.00;1.00
12557;DHT22;6344;49.932;8.308;2023-03-04T12:11:52;6.10;1.00
12557;DHT22;6344;49.932;8.308;2023-03-04T12:14:25;6.20;1.00
12557;DHT22;6344;49.932;8.308;2023-03-04T12:17:16;6.00;1.00
12557;DHT22;6344;49.932;8.308;2023-03-04T12:19:56;6.20;1.00
12557;DHT22;6344;49.932;8.308;2023-03-04T12:22:33;6.00;1.00
12557;DHT22;6344;49.932;8.308;2023-03-04T12:25:14;5.90;1.00
12557;DHT22;6344;49.932;8.308;2023-03-04T12:27:50;5.90;1.00
12557;DHT22;6344;49.932;8.308;2023-03-04T12:30:29;5.90;1.00
12557;DHT22;6344;49.932;8.308;2023-03-04T12:33:06;6.00;1.00
12557;DHT22;6344;49.932;8.308;2023-03-04T12:35:40;6.10;1.00
12557;DHT22;6344;49.932;8.308;2023-03-04T12:38:22;6.20;1.00
12557;DHT22;6344;49.932;8.308;2023-03-04T12:40:58;6.30;1.00
12557;DHT22;6344;49.932;8.308;2023-03-04T12:43:39;6.30;1.00
12557;DHT22;6344;49.932;8.308;2023-03-04T12:46:16;6.50;1.00
12557;DHT22;6344;49.932;8.308;2023-03-04T12:48:51;6.60;1.00
12557;DHT22;6344;49.932;8.308;2023-03-04T12:51:30;6.80;1.00
12557;DHT22;6344;49.932;8.308;2023-03-04T12:54:07;6.70;1.00
12557;DHT22;6344;49.932;8.308;2023-03-04T12:56:42;6.50;1.00
12557;DHT22;6344;49.932;8.308;2023-03-04T12:59:14;6.60;1.00
12557;DHT22;6344;49.932;8.308;2023-03-04T13:01:47;6.60;1.00
12557;DHT22;6344;49.932;8.308;2023-03-04T13:04:20;6.90;1.00
12557;DHT22;6344;49.932;8.308;2023-03-04T13:06:59;7.10;1.00
12557;DHT22;6344;49.932;8.308;2023-03-04T13:09:28;7.40;1.00
12557;DHT22;6344;49.932;8.308;2023-03-04T13:12:10;7.60;1.00
12557;DHT22;6344;49.932;8.308;2023-03-04T13:15:17;7.60;1.00
12557;DHT22;6344;49.932;8.308;2023-03-04T13:17:45;7.80;1.00
12557;DHT22;6344;49.932;8.308;2023-03-04T13:20:24;8.30;1.00
12557;DHT22;6344;49.932;8.308;2023-03-04T13:22:57;8.40;1.00
12557;DHT22;6344;49.932;8.308;2023-03-04T13:25:36;8.30;1.00
12557;DHT22;6344;49.932;8.308;2023-03-04T13:28:31;8.40;1.00
12557;DHT22;6344;49.932;8.308;2023-03-04T13:31:13;8.30;1.00
12557;DHT22;6344;49.932;8.308;2023-03-04T13:33:53;8.60;1.00
12557;DHT22;6344;49.932;8.308;2023-03-04T13:39:30;8.50;1.00
12557;DHT22;6344;49.932;8.308;2023-03-04T13:41:57;8.30;1.00
12557;DHT22;6344;49.932;8.308;2023-03-04T13:44:55;8.40;1.00
12557;DHT22;6344;49.932;8.308;2023-03-04T13:47:29;8.20;1.00
12557;DHT22;6344;49.932;8.308;2023-03-04T13:53:05;8.50;1.00
12557;DHT22;6344;49.932;8.308;2023-03-04T13:56:03;8.60;1.00
12557;DHT22;6344;49.932;8.308;2023-03-04T13:58:31;8.50;1.00
12557;DHT22;6344;49.932;8.308;2023-03-04T14:00:58;8.30;1.00
12557;DHT22;6344;49.932;8.308;2023-03-04T14:03:29;8.40;1.00
12557;DHT22;6344;49.932;8.308;2023-03-04T14:06:10;8.30;1.00
12557;DHT22;6344;49.932;8.308;2023-03-04T14:08:37;8.00;1.00
12557;DHT22;6344;49.932;8.308;2023-03-04T14:11:03;7.90;1.00
12557;DHT22;6344;49.932;8.308;2023-03-04T14:13:32;7.80;1.00
12557;DHT22;6344;49.932;8.308;2023-03-04T14:15:59;7.60;1.00
12557;DHT22;6344;49.932;8.308;2023-03-04T14:18:27;7.60;1.00
12557;DHT22;6344;49.932;8.308;2023-03-04T14:20:56;7.90;1.00
12557;DHT22;6344;49.932;8.308;2023-03-04T14:23:27;8.00;1.00
12557;DHT22;6344;49.932;8.308;2023-03-04T14:26:05;7.90;1.00
12557;DHT22;6344;49.932;8.308;2023-03-04T14:28:32;8.00;1.00
12557;DHT22;6344;49.932;8.308;2023-03-04T14:31:15;7.90;1.00
12557;DHT22;6344;49.932;8.308;2023-03-04T14:33:46;7.70;1.00
12557;DHT22;6344;49.932;8.308;2023-03-04T14:36:17;7.60;1.00
12557;DHT22;6344;49.932;8.308;2023-03-04T14:38:49;7.70;1.00
12557;DHT22;6344;49.932;8.308;2023-03-04T14:41:18;7.50;1.00
12557;DHT22;6344;49.932;8.308;2023-03-04T14:43:49;7.70;1.00
12557;DHT22;6344;49.932;8.308;2023-03-04T14:46:19;7.60;1.00
12557;DHT22;6344;49.932;8.308;2023-03-04T14:48:49;7.60;1.00
12557;DHT22;6344;49.932;8.308;2023-03-04T14:51:34;7.60;1.00
12557;DHT22;6344;49.932;8.308;2023-03-04T14:54:03;7.50;1.00
12557;DHT22;6344;49.932;8.308;2023-03-04T14:56:31;7.50;1.00
12557;DHT22;6344;49.932;8.308;2023-03-04T14:58:58;7.50;1.00
12557;DHT22;6344;49.932;8.308;2023-03-04T15:01:31;7.30;1.00
12557;DHT22;6344;49.932;8.308;2023-03-04T15:04:01;7.30;1.00
12557;DHT22;6344;49.932;8.308;2023-03-04T15:06:30;7.30;1.00
12557;DHT22;6344;49.932;8.308;2023-03-04T15:08:59;7.30;1.00
12557;DHT22;6344;49.932;8.308;2023-03-04T15:11:29;7.30;1.00
12557;DHT22;6344;49.932;8.308;2023-03-04T15:13:57;7.30;1.00
12557;DHT22;6344;49.932;8.308;2023-03-04T15:16:25;7.30;1.00
12557;DHT22;6344;49.932;8.308;2023-03-04T15:18:54;7.30;1.00
12557;DHT22;6344;49.932;8.308;2023-03-04T15:21:32;7.20;1.00
12557;DHT22;6344;49.932;8.308;2023-03-04T15:23:59;7.20;1.00
12557;DHT22;6344;49.932;8.308;2023-03-04T15:26:27;7.10;1.00
12557;DHT22;6344;49.932;8.308;2023-03-04T15:28:54;7.00;1.00
12557;DHT22;6344;49.932;8.308;2023-03-04T15:31:22;7.10;1.00
12557;DHT22;6344;49.932;8.308;2023-03-04T15:33:50;7.10;1.00
12557;DHT22;6344;49.932;8.308;2023-03-04T15:36:19;7.10;1.00
12557;DHT22;6344;49.932;8.308;2023-03-04T15:38:49;7.10;1.00
12557;DHT22;6344;49.932;8.308;2023-03-04T15:41:19;7.00;1.00
12557;DHT22;6344;49.932;8.308;2023-03-04T15:43:46;7.00;1.00
12557;DHT22;6344;49.932;8.308;2023-03-04T15:46:13;6.90;1.00
12557;DHT22;6344;49.932;8.308;2023-03-04T15:48:40;7.00;1.00
12557;DHT22;6344;49.932;8.308;2023-03-04T15:51:12;7.00;1.00
12557;DHT22;6344;49.932;8.308;2023-03-04T15:53:41;7.00;1.00
12557;DHT22;6344;49.932;8.308;2023-03-04T15:56:12;7.00;1.00
12557;DHT22;6344;49.932;8.308;2023-03-04T15:58:40;7.00;1.00
12557;DHT22;6344;49.932;8.308;2023-03-04T16:01:08;7.00;1.00
12557;DHT22;6344;49.932;8.308;2023-03-04T16:03:35;7.00;1.00
12557;DHT22;6344;49.932;8.308;2023-03-04T16:06:02;6.90;1.00
12557;DHT22;6344;49.932;8.308;2023-03-04T16:08:29;6.90;1.00
12557;DHT22;6344;49.932;8.308;2023-03-04T16:10:55;6.80;1.00
12557;DHT22;6344;49.932;8.308;2023-03-04T16:13:23;6.80;1.00
12557;DHT22;6344;49.932;8.308;2023-03-04T16:15:50;6.80;1.00
12557;DHT22;6344;49.932;8.308;2023-03-04T16:18:17;6.80;1.00
12557;DHT22;6344;49.932;8.308;2023-03-04T16:20:46;6.80;1.00
12557;DHT22;6344;49.932;8.308;2023-03-04T16:23:16;6.80;1.00
12557;DHT22;6344;49.932;8.308;2023-03-04T16:25:44;6.80;1.00
12557;DHT22;6344;49.932;8.308;2023-03-04T16:28:12;6.80;1.00
12557;DHT22;6344;49.932;8.308;2023-03-04T16:30:41;6.80;1.00